createdAt,value
2023-02-27T00:12:45.018Z,-1.09
2023-02-27T00:32:45.131Z,-1.16
2023-02-27T00:52:45.128Z,-1.20
2023-02-27T01:12:45.131Z,-1.04
2023-02-27T01:32:45.133Z,-0.86
2023-02-27T01:52:45.166Z,-0.75
2023-02-27T02:12:45.131Z,-0.69
2023-02-27T02:32:45.138Z,-0.69
2023-02-27T02:52:45.134Z,-0.78
2023-02-27T03:12:45.144Z,-0.83
2023-02-27T03:32:45.137Z,-0.83
2023-02-27T03:52:45.148Z,-0.80
2023-02-27T04:12:45.151Z,-0.83
2023-02-27T04:32:45.140Z,-0.90
2023-02-27T04:52:45.152Z,-1.03
2023-02-27T05:12:45.157Z,-1.08
2023-02-27T05:32:45.164Z,-1.11
2023-02-27T05:52:45.162Z,-1.15
2023-02-27T06:12:45.170Z,-1.24
2023-02-27T06:32:45.185Z,-1.09
2023-02-27T06:52:45.277Z,-0.88
2023-02-27T07:12:45.281Z,-0.65
2023-02-27T07:32:45.273Z,-0.52
2023-02-27T07:52:45.242Z,-0.35
2023-02-27T08:12:45.291Z,-0.14
2023-02-27T08:32:45.251Z,0.09
2023-02-27T08:52:45.257Z,0.42
2023-02-27T09:12:45.252Z,0.83
2023-02-27T09:32:45.267Z,1.08
2023-02-27T09:52:45.283Z,0.97
2023-02-27T10:12:45.288Z,0.97
2023-02-27T10:32:45.305Z,1.32
2023-02-27T10:52:45.292Z,1.54
2023-02-27T11:12:45.304Z,1.46
2023-02-27T11:32:45.313Z,1.60
2023-02-27T11:52:45.341Z,1.44
2023-02-27T12:12:45.330Z,1.58
2023-02-27T12:32:45.330Z,1.64
2023-02-27T12:52:45.397Z,1.67
2023-02-27T13:12:45.276Z,1.82
2023-02-27T13:32:45.269Z,2.08
2023-02-27T13:52:45.287Z,1.92
2023-02-27T14:12:45.271Z,1.72
2023-02-27T14:32:45.380Z,1.98
2023-02-27T14:52:45.309Z,1.72
2023-02-27T15:12:45.297Z,1.44
2023-02-27T15:32:45.318Z,1.31
2023-02-27T15:52:45.345Z,1.08
2023-02-27T16:12:45.353Z,0.86
2023-02-27T16:32:45.320Z,0.81
2023-02-27T16:52:45.321Z,0.51
2023-02-27T17:12:45.352Z,0.28
2023-02-27T17:32:45.350Z,0.29
2023-02-27T17:52:45.341Z,0.14
2023-02-27T18:12:45.339Z,0.06
2023-02-27T18:32:45.345Z,0.07
2023-02-27T18:52:45.370Z,-0.13
2023-02-27T19:12:45.381Z,-0.33
2023-02-27T19:32:45.386Z,-0.34
2023-02-27T19:52:45.391Z,-0.36
2023-02-27T20:12:45.389Z,-0.38
2023-02-27T20:32:45.389Z,-0.30
2023-02-27T20:52:45.435Z,-0.44
2023-02-27T21:12:45.423Z,-0.46
2023-02-27T21:32:45.420Z,-0.49
2023-02-27T21:52:45.402Z,-0.71
2023-02-27T22:12:45.409Z,-0.76
2023-02-27T22:32:45.460Z,-0.83
2023-02-27T22:52:45.480Z,-0.79
2023-02-27T23:12:45.417Z,-0.85
2023-02-27T23:32:45.428Z,-0.86
2023-02-27T23:52:45.435Z,-0.87
